Time;durP1;ratioP1;P1;durP2;ratioP2;P2;SDS_P1;SDS_P2;PMS_P1;PMS_P2;Temp;Humidity;BMP_temperature;BMP_pressure;BME280_temperature;BME280_humidity;BME280_pressure;Samples;Min_cycle;Max_cycle;Signal;HPM_P1;HPM_P2
2023/10/08 00:01:42;;;;;;;0.17;0.17;;;;;;;;;;4959582;28;20050;-86
2023/10/08 00:04:08;;;;;;;0.10;0.10;;;;;;;;;;4960167;28;20039;-86
2023/10/08 00:06:34;;;;;;;0.20;0.20;;;;;;;;;;4959861;28;20030;-86
2023/10/08 00:09:07;;;;;;;0.30;0.30;;;;;;;;;;4959335;28;20042;-87
2023/10/08 00:11:36;;;;;;;0.30;0.30;;;;;;;;;;4959724;28;20129;-86
2023/10/08 00:14:05;;;;;;;0.20;0.20;;;;;;;;;;4961018;28;20046;-91
2023/10/08 00:16:33;;;;;;;0.30;0.30;;;;;;;;;;4961574;28;20042;-90
2023/10/08 00:19:07;;;;;;;0.10;0.10;;;;;;;;;;4961672;28;20049;-90
2023/10/08 00:21:35;;;;;;;0.30;0.30;;;;;;;;;;4961989;28;20038;-90
2023/10/08 00:24:05;;;;;;;0.28;0.28;;;;;;;;;;4961657;28;20298;-90
2023/10/08 00:26:32;;;;;;;0.30;0.30;;;;;;;;;;4961642;28;20042;-91
2023/10/08 00:28:59;;;;;;;0.30;0.30;;;;;;;;;;4964926;28;20030;-91
2023/10/08 00:31:30;;;;;;;0.20;0.20;;;;;;;;;;4980351;28;20049;-90
2023/10/08 00:33:56;;;;;;;0.30;0.30;;;;;;;;;;4980191;28;20034;-91
2023/10/08 00:36:23;;;;;;;0.20;0.20;;;;;;;;;;4981739;28;20053;-90
2023/10/08 00:38:53;;;;;;;0.30;0.30;;;;;;;;;;4980746;28;20050;-90
2023/10/08 00:41:21;;;;;;;0.30;0.30;;;;;;;;;;4980011;28;20065;-90
2023/10/08 00:43:47;;;;;;;0.13;0.13;;;;;;;;;;4980526;28;20034;-91
2023/10/08 00:46:23;;;;;;;0.20;0.20;;;;;;;;;;4980472;28;20074;-90
2023/10/08 00:48:53;;;;;;;0.20;0.20;;;;;;;;;;4980047;28;20046;-91
2023/10/08 00:53:52;;;;;;;0.30;0.30;;;;;;;;;;4996853;28;20050;-89
2023/10/08 00:56:19;;;;;;;0.20;0.20;;;;;;;;;;4980552;28;20103;-90
2023/10/08 00:58:52;;;;;;;0.10;0.10;;;;;;;;;;4979544;28;20109;-91
2023/10/08 01:01:20;;;;;;;0.30;0.30;;;;;;;;;;4979615;28;20083;-91
2023/10/08 01:03:47;;;;;;;0.20;0.20;;;;;;;;;;4980518;28;20085;-90
2023/10/08 01:06:17;;;;;;;0.30;0.30;;;;;;;;;;4981208;28;20069;-91
2023/10/08 01:08:52;;;;;;;0.30;0.30;;;;;;;;;;4979840;28;20086;-90
2023/10/08 01:11:42;;;;;;;0.20;0.20;;;;;;;;;;4980035;28;20125;-91
2023/10/08 01:14:08;;;;;;;0.17;0.17;;;;;;;;;;4980141;28;20424;-90
2023/10/08 01:16:35;;;;;;;0.30;0.30;;;;;;;;;;4980316;28;20129;-91
2023/10/08 01:19:02;;;;;;;0.30;0.30;;;;;;;;;;4979999;28;20092;-91
2023/10/08 01:21:34;;;;;;;0.20;0.20;;;;;;;;;;4981909;28;20109;-90
2023/10/08 01:24:07;;;;;;;0.28;0.28;;;;;;;;;;4984618;28;20603;-90
2023/10/08 01:26:39;;;;;;;0.20;0.20;;;;;;;;;;4984839;28;20049;-92
2023/10/08 01:29:07;;;;;;;0.20;0.20;;;;;;;;;;4984263;28;20026;-91
2023/10/08 01:31:33;;;;;;;0.30;0.30;;;;;;;;;;4984742;28;20061;-92
2023/10/08 01:34:00;;;;;;;0.20;0.20;;;;;;;;;;4985646;28;20180;-89
2023/10/08 01:36:26;;;;;;;0.17;0.17;;;;;;;;;;4986254;28;20414;-91
2023/10/08 01:38:54;;;;;;;0.25;0.25;;;;;;;;;;4970220;28;20085;-91
2023/10/08 01:41:30;;;;;;;0.20;0.20;;;;;;;;;;4984934;28;20096;-91
2023/10/08 01:43:57;;;;;;;0.30;0.30;;;;;;;;;;4985615;28;20502;-92
2023/10/08 01:46:26;;;;;;;0.15;0.15;;;;;;;;;;4984671;28;20046;-92
2023/10/08 01:49:08;;;;;;;0.22;0.22;;;;;;;;;;4984710;28;20100;-93
2023/10/08 01:51:39;;;;;;;0.20;0.20;;;;;;;;;;4984929;28;20425;-91
2023/10/08 01:54:11;;;;;;;0.28;0.28;;;;;;;;;;4984961;28;20034;-91
2023/10/08 01:56:42;;;;;;;0.30;0.30;;;;;;;;;;4984529;28;20133;-92
2023/10/08 01:59:09;;;;;;;0.20;0.20;;;;;;;;;;4985369;28;20054;-92
2023/10/08 02:01:35;;;;;;;0.10;0.10;;;;;;;;;;5000167;28;20098;-93
2023/10/08 02:04:02;;;;;;;0.20;0.20;;;;;;;;;;4985245;28;20046;-91
2023/10/08 02:06:30;;;;;;;0.30;0.30;;;;;;;;;;4984653;28;20066;-92
2023/10/08 02:08:58;;;;;;;0.20;0.20;;;;;;;;;;4984760;28;20049;-92
2023/10/08 02:11:27;;;;;;;0.30;0.30;;;;;;;;;;4984464;28;20486;-93
2023/10/08 02:13:53;;;;;;;0.20;0.20;;;;;;;;;;4984585;28;20070;-93
2023/10/08 02:16:19;;;;;;;0.20;0.20;;;;;;;;;;4984610;28;20053;-92
2023/10/08 02:18:46;;;;;;;0.20;0.20;;;;;;;;;;4983693;28;20042;-91
2023/10/08 02:21:12;;;;;;;0.20;0.20;;;;;;;;;;4984480;28;20137;-91
2023/10/08 02:23:38;;;;;;;0.28;0.28;;;;;;;;;;4983967;28;20522;-91
2023/10/08 02:26:05;;;;;;;0.10;0.10;;;;;;;;;;4984505;28;20038;-92
2023/10/08 02:28:33;;;;;;;0.30;0.30;;;;;;;;;;4999808;28;20136;-92
2023/10/08 02:30:59;;;;;;;0.20;0.20;;;;;;;;;;4985074;28;20710;-93
2023/10/08 02:33:26;;;;;;;0.28;0.28;;;;;;;;;;4983517;28;20509;-92
2023/10/08 02:35:53;;;;;;;0.20;0.20;;;;;;;;;;4985013;28;20129;-93
2023/10/08 02:38:21;;;;;;;0.10;0.10;;;;;;;;;;4984235;28;20042;-92
2023/10/08 02:40:47;;;;;;;0.20;0.20;;;;;;;;;;4984736;28;20049;-92
2023/10/08 02:43:15;;;;;;;0.20;0.20;;;;;;;;;;4983399;28;20513;-93
2023/10/08 02:45:47;;;;;;;0.20;0.20;;;;;;;;;;5000742;28;20069;-92
2023/10/08 02:48:13;;;;;;;0.20;0.20;;;;;;;;;;4983485;28;20046;-92
2023/10/08 02:50:44;;;;;;;0.20;0.20;;;;;;;;;;4983035;28;20053;-92
2023/10/08 02:53:17;;;;;;;0.20;0.20;;;;;;;;;;4983264;28;20391;-92
2023/10/08 02:55:46;;;;;;;0.30;0.30;;;;;;;;;;4984324;28;20483;-93
2023/10/08 02:58:18;;;;;;;0.30;0.30;;;;;;;;;;4983366;28;20038;-91
2023/10/08 03:00:46;;;;;;;0.30;0.30;;;;;;;;;;4983492;28;20050;-91
2023/10/08 03:03:24;;;;;;;0.10;0.10;;;;;;;;;;4982914;28;20042;-91
2023/10/08 03:05:54;;;;;;;0.20;0.20;;;;;;;;;;4984237;28;20480;-92
2023/10/08 03:08:21;;;;;;;0.30;0.30;;;;;;;;;;4983779;28;20042;-90
2023/10/08 03:11:02;;;;;;;0.25;0.25;;;;;;;;;;4999384;28;20050;-91
2023/10/08 03:13:28;;;;;;;0.20;0.20;;;;;;;;;;4983313;28;20177;-92
2023/10/08 03:18:35;;;;;;;0.20;0.20;;;;;;;;;;4999440;28;20066;-91
2023/10/08 03:21:04;;;;;;;0.30;0.30;;;;;;;;;;4982431;28;20152;-91
2023/10/08 03:23:36;;;;;;;0.20;0.20;;;;;;;;;;4982822;28;20034;-89
2023/10/08 03:26:11;;;;;;;0.20;0.20;;;;;;;;;;4983353;28;20050;-91
2023/10/08 03:28:37;;;;;;;;;;;;;;;;;;4982321;28;20073;-92
2023/10/08 03:31:14;;;;;;;0.30;0.30;;;;;;;;;;4982110;28;19917;-92
2023/10/08 03:33:40;;;;;;;0.20;0.20;;;;;;;;;;4981753;28;20077;-92
2023/10/08 03:36:34;;;;;;;0.30;0.30;;;;;;;;;;4982694;28;20050;-92
2023/10/08 03:38:57;;;;;;;0.20;0.20;;;;;;;;;;4996352;28;20086;-92
2023/10/08 03:41:27;;;;;;;0.20;0.20;;;;;;;;;;4981307;28;20241;-91
2023/10/08 03:44:12;;;;;;;0.30;0.30;;;;;;;;;;4982009;28;20043;-91
2023/10/08 03:46:46;;;;;;;0.20;0.20;;;;;;;;;;4981541;28;20038;-92
2023/10/08 03:51:51;;;;;;;0.30;0.30;;;;;;;;;;4998164;28;20104;-91
2023/10/08 03:54:18;;;;;;;0.30;0.30;;;;;;;;;;4982950;28;20039;-91
2023/10/08 03:56:45;;;;;;;0.22;0.22;;;;;;;;;;4983250;28;20042;-93
2023/10/08 03:59:31;;;;;;;0.20;0.20;;;;;;;;;;4981530;28;20074;-93
2023/10/08 04:04:53;;;;;;;0.15;0.15;;;;;;;;;;4997314;28;20149;-92
2023/10/08 04:07:47;;;;;;;0.30;0.30;;;;;;;;;;4981739;28;20045;-92
2023/10/08 04:12:59;;;;;;;0.20;0.20;;;;;;;;;;4997306;28;19917;-92
2023/10/08 04:15:27;;;;;;;0.30;0.30;;;;;;;;;;4996403;28;20038;-90
2023/10/08 04:17:53;;;;;;;0.30;0.30;;;;;;;;;;4996673;28;20054;-91
2023/10/08 04:20:33;;;;;;;0.20;0.20;;;;;;;;;;4980405;28;20394;-92
2023/10/08 04:22:59;;;;;;;0.20;0.20;;;;;;;;;;4998500;28;20105;-92
2023/10/08 04:25:29;;;;;;;0.20;0.20;;;;;;;;;;4981744;28;20039;-92
2023/10/08 04:27:58;;;;;;;0.20;0.20;;;;;;;;;;4981680;28;20045;-92
2023/10/08 04:30:32;;;;;;;0.20;0.20;;;;;;;;;;4981772;28;20038;-91
2023/10/08 04:32:58;;;;;;;0.20;0.20;;;;;;;;;;4981825;28;20038;-93
2023/10/08 04:35:26;;;;;;;0.20;0.20;;;;;;;;;;4981189;28;20505;-93
2023/10/08 04:37:53;;;;;;;0.20;0.20;;;;;;;;;;4981086;28;20180;-90
2023/10/08 04:40:23;;;;;;;0.10;0.10;;;;;;;;;;4980779;28;20043;-90
2023/10/08 04:42:49;;;;;;;0.20;0.20;;;;;;;;;;4982533;28;20046;-92
2023/10/08 04:45:16;;;;;;;0.30;0.30;;;;;;;;;;4980748;28;20038;-91
2023/10/08 04:47:49;;;;;;;0.20;0.20;;;;;;;;;;4981291;28;20038;-92
2023/10/08 04:50:17;;;;;;;0.28;0.28;;;;;;;;;;4980474;28;20073;-93
2023/10/08 04:52:58;;;;;;;0.30;0.30;;;;;;;;;;4997300;28;20050;-93
2023/10/08 04:55:29;;;;;;;0.20;0.20;;;;;;;;;;4966272;28;20050;-90
2023/10/08 04:57:55;;;;;;;0.20;0.20;;;;;;;;;;4980806;28;20043;-91
2023/10/08 05:00:41;;;;;;;0.30;0.30;;;;;;;;;;4980119;28;20045;-91
2023/10/08 05:03:14;;;;;;;0.15;0.15;;;;;;;;;;4980359;28;20410;-91
2023/10/08 05:06:08;;;;;;;0.28;0.28;;;;;;;;;;4980358;28;20038;-91
2023/10/08 05:11:36;;;;;;;0.15;0.15;;;;;;;;;;4996234;28;20594;-90
2023/10/08 05:14:06;;;;;;;0.30;0.30;;;;;;;;;;4980448;28;20145;-90
2023/10/08 05:16:43;;;;;;;0.30;0.30;;;;;;;;;;4980984;28;20553;-92
2023/10/08 05:22:05;;;;;;;0.20;0.20;;;;;;;;;;4996943;28;20042;-93
2023/10/08 05:24:38;;;;;;;0.10;0.10;;;;;;;;;;4981053;28;20658;-91
2023/10/08 05:30:11;;;;;;;0.17;0.17;;;;;;;;;;4997212;28;20042;-92
2023/10/08 05:32:38;;;;;;;0.20;0.20;;;;;;;;;;4980873;28;20074;-92
2023/10/08 05:38:02;;;;;;;0.28;0.28;;;;;;;;;;4997959;28;20070;-91
2023/10/08 05:43:33;;;;;;;0.35;0.35;;;;;;;;;;4996972;28;20486;-91
2023/10/08 05:46:39;;;;;;;0.20;0.20;;;;;;;;;;4980901;28;20042;-93
2023/10/08 05:48:50;;;;;;;0.20;0.20;;;;;;;;;;4996528;28;20165;-91
2023/10/08 05:51:44;;;;;;;0.20;0.20;;;;;;;;;;4979915;28;20053;-92
2023/10/08 05:54:24;;;;;;;0.30;0.30;;;;;;;;;;4983556;28;20129;-91
2023/10/08 06:18:18;;;;;;;0.20;0.20;;;;;;;;;;4994896;28;20129;-93
2023/10/08 06:20:54;;;;;;;0.20;0.20;;;;;;;;;;4981130;28;20038;-95
2023/10/08 06:23:20;;;;;;;0.20;0.20;;;;;;;;;;4985340;28;20050;-95
2023/10/08 06:25:54;;;;;;;0.30;0.30;;;;;;;;;;4966816;28;20043;-93
2023/10/08 06:28:20;;;;;;;0.20;0.20;;;;;;;;;;4984841;28;20057;-94
2023/10/08 06:30:53;;;;;;;0.20;0.20;;;;;;;;;;4984650;28;20061;-90
2023/10/08 06:33:19;;;;;;;0.10;0.10;;;;;;;;;;4983811;28;20097;-93
2023/10/08 06:38:31;;;;;;;0.20;0.20;;;;;;;;;;4997397;28;20038;-93
2023/10/08 06:41:06;;;;;;;0.30;0.30;;;;;;;;;;4979845;28;20050;-94
2023/10/08 06:43:36;;;;;;;0.20;0.20;;;;;;;;;;4983124;28;20042;-94
2023/10/08 06:46:02;;;;;;;0.50;0.50;;;;;;;;;;4976977;28;20045;-93
2023/10/08 06:48:29;;;;;;;0.20;0.20;;;;;;;;;;4983772;28;20550;-90
2023/10/08 06:50:58;;;;;;;0.20;0.20;;;;;;;;;;4983064;28;20042;-93
2023/10/08 06:53:24;;;;;;;0.20;0.20;;;;;;;;;;4984349;28;20076;-92
2023/10/08 06:55:57;;;;;;;0.20;0.20;;;;;;;;;;4984413;28;20049;-90
2023/10/08 06:58:24;;;;;;;0.20;0.20;;;;;;;;;;4983252;28;20038;-91
2023/10/08 07:00:50;;;;;;;0.20;0.20;;;;;;;;;;4982056;28;20057;-92
2023/10/08 07:03:20;;;;;;;0.20;0.20;;;;;;;;;;4975992;28;20508;-92
2023/10/08 07:05:59;;;;;;;0.20;0.20;;;;;;;;;;4982463;28;20038;-93
2023/10/08 07:08:29;;;;;;;0.30;0.30;;;;;;;;;;4983290;28;20518;-92
2023/10/08 07:10:56;;;;;;;0.10;0.10;;;;;;;;;;4980294;28;20039;-93
2023/10/08 07:13:22;;;;;;;0.10;0.10;;;;;;;;;;4972462;28;20493;-91
2023/10/08 07:15:50;;;;;;;0.20;0.20;;;;;;;;;;4981200;28;20065;-92
2023/10/08 07:18:24;;;;;;;0.20;0.20;;;;;;;;;;4979938;28;20077;-92
2023/10/08 07:20:53;;;;;;;0.20;0.20;;;;;;;;;;4978591;28;20454;-93
2023/10/08 07:23:24;;;;;;;0.28;0.28;;;;;;;;;;4984950;28;20042;-93
2023/10/08 07:26:17;;;;;;;0.30;0.30;;;;;;;;;;4981997;28;20054;-95
2023/10/08 07:28:46;;;;;;;0.30;0.30;;;;;;;;;;4964135;28;20046;-93
2023/10/08 07:31:15;;;;;;;0.20;0.20;;;;;;;;;;4978373;28;20046;-92
2023/10/08 07:33:43;;;;;;;0.25;0.25;;;;;;;;;;4982411;28;20073;-93
2023/10/08 07:36:14;;;;;;;0.22;0.22;;;;;;;;;;4978492;28;20026;-94
2023/10/08 07:38:43;;;;;;;0.20;0.20;;;;;;;;;;4983503;28;20034;-94
2023/10/08 07:41:12;;;;;;;0.20;0.20;;;;;;;;;;4983202;28;20045;-94
2023/10/08 07:43:39;;;;;;;0.20;0.20;;;;;;;;;;4981428;28;20076;-94
2023/10/08 07:46:05;;;;;;;0.20;0.20;;;;;;;;;;4981870;28;20074;-94
2023/10/08 07:48:31;;;;;;;0.20;0.20;;;;;;;;;;4980273;28;20022;-95
2023/10/08 07:50:57;;;;;;;0.30;0.30;;;;;;;;;;4983759;28;20046;-94
2023/10/08 07:53:24;;;;;;;0.20;0.20;;;;;;;;;;4980214;28;20034;-93
2023/10/08 07:55:51;;;;;;;0.28;0.28;;;;;;;;;;4983644;28;20745;-96
2023/10/08 07:58:18;;;;;;;0.10;0.10;;;;;;;;;;4982585;28;20048;-92
2023/10/08 08:00:51;;;;;;;0.10;0.10;;;;;;;;;;4983173;28;20034;-94
2023/10/08 08:03:19;;;;;;;0.20;0.20;;;;;;;;;;4997862;28;20475;-95
2023/10/08 08:05:52;;;;;;;0.20;0.20;;;;;;;;;;4979510;28;20034;-94
2023/10/08 08:08:21;;;;;;;0.20;0.20;;;;;;;;;;4954674;28;20066;-96
2023/10/08 08:10:47;;;;;;;0.22;0.22;;;;;;;;;;4963486;28;20046;-95
2023/10/08 08:13:20;;;;;;;0.20;0.20;;;;;;;;;;4962553;28;20047;-93
2023/10/08 08:15:50;;;;;;;0.30;0.30;;;;;;;;;;4964570;28;20035;-94
2023/10/08 08:18:22;;;;;;;0.30;0.30;;;;;;;;;;4963094;28;20043;-95
2023/10/08 08:20:48;;;;;;;0.20;0.20;;;;;;;;;;4964604;28;20035;-94
2023/10/08 08:23:16;;;;;;;0.30;0.30;;;;;;;;;;4964349;28;20510;-95
2023/10/08 08:26:05;;;;;;;0.10;0.10;;;;;;;;;;4964021;28;20118;-95
2023/10/08 08:28:31;;;;;;;0.13;0.13;;;;;;;;;;4964588;28;20035;-95
2023/10/08 08:31:04;;;;;;;0.10;0.10;;;;;;;;;;4964107;28;20551;-95
2023/10/08 08:33:52;;;;;;;0.30;0.30;;;;;;;;;;4964387;28;20035;-96
2023/10/08 08:36:16;;;;;;;0.17;0.17;;;;;;;;;;4980687;28;20499;-91
2023/10/08 08:38:43;;;;;;;0.20;0.20;;;;;;;;;;4963869;28;20097;-94
2023/10/08 08:41:12;;;;;;;0.10;0.10;;;;;;;;;;4963766;28;20039;-95
2023/10/08 08:43:43;;;;;;;0.28;0.28;;;;;;;;;;4964200;28;20046;-93
2023/10/08 08:46:15;;;;;;;0.20;0.20;;;;;;;;;;4963963;28;20526;-94
2023/10/08 08:48:44;;;;;;;0.20;0.20;;;;;;;;;;4962120;28;20074;-94
2023/10/08 08:51:11;;;;;;;0.30;0.30;;;;;;;;;;4963100;28;20089;-96
2023/10/08 08:53:37;;;;;;;0.35;0.35;;;;;;;;;;4964156;28;20041;-94
2023/10/08 08:56:06;;;;;;;0.20;0.20;;;;;;;;;;4964491;28;20069;-93
2023/10/08 08:58:33;;;;;;;0.10;0.10;;;;;;;;;;4962672;28;20042;-93
2023/10/08 09:01:01;;;;;;;0.30;0.30;;;;;;;;;;4963823;28;20081;-94
2023/10/08 09:03:30;;;;;;;0.20;0.20;;;;;;;;;;4963038;28;20107;-95
2023/10/08 09:05:56;;;;;;;0.20;0.20;;;;;;;;;;4963243;28;20062;-94
2023/10/08 09:08:24;;;;;;;0.20;0.20;;;;;;;;;;4963470;28;20124;-94
2023/10/08 09:10:53;;;;;;;0.30;0.30;;;;;;;;;;4962321;28;20046;-93
2023/10/08 09:13:22;;;;;;;0.15;0.15;;;;;;;;;;4961733;28;20039;-94
2023/10/08 09:15:49;;;;;;;0.20;0.20;;;;;;;;;;4963176;28;20097;-95
2023/10/08 09:18:15;;;;;;;0.20;0.20;;;;;;;;;;4964366;28;20046;-95
2023/10/08 09:20:44;;;;;;;0.20;0.20;;;;;;;;;;4964285;28;20562;-93
2023/10/08 09:23:14;;;;;;;0.15;0.15;;;;;;;;;;4964489;28;20046;-94
2023/10/08 09:25:44;;;;;;;0.10;0.10;;;;;;;;;;4963712;28;20055;-93
2023/10/08 09:28:14;;;;;;;0.10;0.10;;;;;;;;;;4963055;28;20035;-94
2023/10/08 09:30:45;;;;;;;0.13;0.13;;;;;;;;;;4963279;28;20078;-94
2023/10/08 09:33:15;;;;;;;0.10;0.10;;;;;;;;;;4963029;28;20421;-93
2023/10/08 09:35:55;;;;;;;0.20;0.20;;;;;;;;;;4962651;28;20050;-95
2023/10/08 09:38:23;;;;;;;0.17;0.17;;;;;;;;;;4962226;28;20038;-92
2023/10/08 09:40:49;;;;;;;0.20;0.20;;;;;;;;;;4961855;28;20035;-94
2023/10/08 09:43:16;;;;;;;0.10;0.10;;;;;;;;;;4965733;28;20048;-92
2023/10/08 09:45:54;;;;;;;0.25;0.25;;;;;;;;;;4967370;28;20477;-94
2023/10/08 09:48:21;;;;;;;0.25;0.25;;;;;;;;;;4965694;28;20070;-93
2023/10/08 09:50:48;;;;;;;0.30;0.30;;;;;;;;;;4966096;28;20489;-95
2023/10/08 09:53:22;;;;;;;0.10;0.10;;;;;;;;;;4981021;28;20145;-94
2023/10/08 09:55:55;;;;;;;0.20;0.20;;;;;;;;;;4966092;28;20085;-93
2023/10/08 09:58:25;;;;;;;0.20;0.20;;;;;;;;;;4965012;28;20043;-93
2023/10/08 10:00:51;;;;;;;0.20;0.20;;;;;;;;;;4965488;28;20070;-93
2023/10/08 10:03:18;;;;;;;0.20;0.20;;;;;;;;;;4965867;28;20042;-93
2023/10/08 10:05:45;;;;;;;0.20;0.20;;;;;;;;;;4965615;28;20096;-93
2023/10/08 10:08:17;;;;;;;0.10;0.10;;;;;;;;;;4966017;28;20109;-93
2023/10/08 10:10:49;;;;;;;0.10;0.10;;;;;;;;;;4964287;28;20039;-94
2023/10/08 10:13:17;;;;;;;0.32;0.32;;;;;;;;;;4964071;28;20050;-93
2023/10/08 10:15:50;;;;;;;0.10;0.10;;;;;;;;;;4965383;28;20065;-92
2023/10/08 10:18:19;;;;;;;0.10;0.10;;;;;;;;;;4964096;28;20045;-92
2023/10/08 10:20:54;;;;;;;0.20;0.20;;;;;;;;;;4965002;28;20047;-96
2023/10/08 10:23:39;;;;;;;0.20;0.20;;;;;;;;;;4981100;28;20090;-93
2023/10/08 10:26:28;;;;;;;0.20;0.20;;;;;;;;;;4965407;28;20042;-93
2023/10/08 10:29:09;;;;;;;0.20;0.20;;;;;;;;;;4963792;28;20039;-92
2023/10/08 10:31:35;;;;;;;0.30;0.30;;;;;;;;;;4981040;28;20508;-92
2023/10/08 10:34:12;;;;;;;0.20;0.20;;;;;;;;;;4964165;28;20057;-93
2023/10/08 10:36:39;;;;;;;0.30;0.30;;;;;;;;;;4964120;28;20179;-93
2023/10/08 10:39:16;;;;;;;0.17;0.17;;;;;;;;;;4963446;28;20136;-92
2023/10/08 10:41:55;;;;;;;0.10;0.10;;;;;;;;;;4963821;28;20062;-92
2023/10/08 10:44:23;;;;;;;0.10;0.10;;;;;;;;;;4963863;28;20046;-92
2023/10/08 10:47:42;;;;;;;0.10;0.10;;;;;;;;;;4965314;28;20078;-93
2023/10/08 10:52:44;;;;;;;0.20;0.20;;;;;;;;;;4980322;28;20042;-93
2023/10/08 10:57:56;;;;;;;0.20;0.20;;;;;;;;;;4966169;28;20062;-92
2023/10/08 11:00:47;;;;;;;0.10;0.10;;;;;;;;;;4963952;28;20043;-93
2023/10/08 11:03:16;;;;;;;0.30;0.30;;;;;;;;;;4951491;28;20030;-90
2023/10/08 11:05:47;;;;;;;0.20;0.20;;;;;;;;;;4966136;28;20069;-92
2023/10/08 11:08:14;;;;;;;0.20;0.20;;;;;;;;;;4964286;28;20500;-93
2023/10/08 11:10:50;;;;;;;0.28;0.28;;;;;;;;;;4980477;28;20038;-92
2023/10/08 11:13:17;;;;;;;0.20;0.20;;;;;;;;;;4964747;28;20055;-93
2023/10/08 11:15:48;;;;;;;0.20;0.20;;;;;;;;;;4964586;28;20043;-93
2023/10/08 11:18:18;;;;;;;0.10;0.10;;;;;;;;;;4964814;28;20046;-93
2023/10/08 11:20:51;;;;;;;0.20;0.20;;;;;;;;;;4964551;28;20041;-94
2023/10/08 11:23:37;;;;;;;0.20;0.20;;;;;;;;;;4964909;28;20066;-92
2023/10/08 11:26:04;;;;;;;0.10;0.10;;;;;;;;;;4964310;28;20039;-93
2023/10/08 11:28:31;;;;;;;0.10;0.10;;;;;;;;;;4964212;28;20047;-92
2023/10/08 11:30:59;;;;;;;0.10;0.10;;;;;;;;;;4963572;28;20055;-91
2023/10/08 11:33:27;;;;;;;0.10;0.10;;;;;;;;;;4963417;28;20070;-93
2023/10/08 11:36:06;;;;;;;0.20;0.20;;;;;;;;;;4964863;28;20046;-93
2023/10/08 11:38:39;;;;;;;0.10;0.10;;;;;;;;;;4964457;28;20082;-93
2023/10/08 11:41:23;;;;;;;0.10;0.10;;;;;;;;;;4963294;28;20050;-92
2023/10/08 11:43:58;;;;;;;0.10;0.10;;;;;;;;;;4963351;28;20411;-92
2023/10/08 11:46:32;;;;;;;0.10;0.10;;;;;;;;;;4964755;28;20514;-92
2023/10/08 11:49:03;;;;;;;0.10;0.10;;;;;;;;;;4963197;28;20049;-93
2023/10/08 11:51:30;;;;;;;0.10;0.10;;;;;;;;;;4963373;28;20045;-93
2023/10/08 11:53:56;;;;;;;0.20;0.20;;;;;;;;;;4979548;28;20027;-92
2023/10/08 11:56:23;;;;;;;0.10;0.10;;;;;;;;;;4963619;28;20053;-91
2023/10/08 11:58:51;;;;;;;0.08;0.08;;;;;;;;;;4962049;28;20168;-92
2023/10/08 12:01:17;;;;;;;0.20;0.20;;;;;;;;;;4962962;28;20137;-92
2023/10/08 12:03:44;;;;;;;0.10;0.10;;;;;;;;;;4962864;28;20054;-91
2023/10/08 12:06:15;;;;;;;0.15;0.15;;;;;;;;;;4963310;28;20086;-92
2023/10/08 12:08:53;;;;;;;0.20;0.20;;;;;;;;;;4964002;28;20049;-91
2023/10/08 12:11:22;;;;;;;0.30;0.30;;;;;;;;;;4963337;28;20049;-91
2023/10/08 12:13:49;;;;;;;0.20;0.20;;;;;;;;;;4962678;28;20042;-92
2023/10/08 12:16:21;;;;;;;0.15;0.15;;;;;;;;;;4963022;28;20045;-92
2023/10/08 12:18:58;;;;;;;0.10;0.10;;;;;;;;;;4963513;28;20484;-91
2023/10/08 12:21:24;;;;;;;0.22;0.22;;;;;;;;;;4960331;28;20070;-91
2023/10/08 12:23:51;;;;;;;0.30;0.30;;;;;;;;;;4962830;28;20129;-92
2023/10/08 12:26:20;;;;;;;0.22;0.22;;;;;;;;;;4961419;28;20074;-92
2023/10/08 12:28:50;;;;;;;0.20;0.20;;;;;;;;;;4961799;28;20077;-92
2023/10/08 12:31:17;;;;;;;0.20;0.20;;;;;;;;;;4962711;28;20042;-92
2023/10/08 12:33:43;;;;;;;0.00;0.00;;;;;;;;;;4961380;28;20045;-92
2023/10/08 12:36:12;;;;;;;0.17;0.17;;;;;;;;;;4962467;28;20463;-92
2023/10/08 12:38:42;;;;;;;0.20;0.20;;;;;;;;;;4961796;28;20042;-93
2023/10/08 12:41:12;;;;;;;0.10;0.10;;;;;;;;;;4961139;28;20042;-93
2023/10/08 12:43:42;;;;;;;0.10;0.10;;;;;;;;;;4962525;28;20154;-91
2023/10/08 12:46:10;;;;;;;0.03;0.03;;;;;;;;;;4962780;28;20047;-91
2023/10/08 12:48:38;;;;;;;0.10;0.10;;;;;;;;;;4961220;28;20039;-92
2023/10/08 12:51:06;;;;;;;0.20;0.20;;;;;;;;;;4961126;28;20093;-92
2023/10/08 12:53:39;;;;;;;0.03;0.03;;;;;;;;;;4961976;28;20138;-92
2023/10/08 12:56:05;;;;;;;0.17;0.17;;;;;;;;;;4978219;28;20463;-92
2023/10/08 12:58:38;;;;;;;0.20;0.20;;;;;;;;;;4976820;28;20042;-91
2023/10/08 13:01:06;;;;;;;0.10;0.10;;;;;;;;;;4961044;28;20043;-92
2023/10/08 13:03:32;;;;;;;0.20;0.20;;;;;;;;;;4961468;28;20134;-91
2023/10/08 13:06:10;;;;;;;0.20;0.20;;;;;;;;;;4962164;28;20046;-91
2023/10/08 13:08:39;;;;;;;0.10;0.10;;;;;;;;;;4978495;28;20049;-92
2023/10/08 13:11:05;;;;;;;0.20;0.20;;;;;;;;;;4961923;28;20035;-91
2023/10/08 13:13:36;;;;;;;0.20;0.20;;;;;;;;;;4961643;28;20069;-92
2023/10/08 13:16:07;;;;;;;0.10;0.10;;;;;;;;;;4962908;28;20035;-91
2023/10/08 13:18:33;;;;;;;0.20;0.20;;;;;;;;;;4961651;28;20112;-91
2023/10/08 13:21:00;;;;;;;0.10;0.10;;;;;;;;;;4962191;28;20085;-91
2023/10/08 13:23:26;;;;;;;0.20;0.20;;;;;;;;;;4961272;28;20041;-90
2023/10/08 13:25:58;;;;;;;0.15;0.15;;;;;;;;;;4964763;28;20070;-92
2023/10/08 13:28:26;;;;;;;0.10;0.10;;;;;;;;;;4962629;28;20046;-92
2023/10/08 13:30:52;;;;;;;0.20;0.20;;;;;;;;;;4962228;28;20035;-92
2023/10/08 13:33:20;;;;;;;0.25;0.25;;;;;;;;;;4961432;28;20035;-91
2023/10/08 13:35:49;;;;;;;0.05;0.05;;;;;;;;;;4961654;28;20447;-93
2023/10/08 13:38:23;;;;;;;0.10;0.10;;;;;;;;;;4978741;28;20050;-91
2023/10/08 13:41:06;;;;;;;0.00;0.00;;;;;;;;;;4962227;28;20050;-91
2023/10/08 13:43:35;;;;;;;0.10;0.10;;;;;;;;;;4977473;28;20046;-91
2023/10/08 13:46:04;;;;;;;0.10;0.10;;;;;;;;;;4963771;28;20102;-92
2023/10/08 13:48:40;;;;;;;0.10;0.10;;;;;;;;;;4961805;28;20043;-91
2023/10/08 13:51:13;;;;;;;0.30;0.30;;;;;;;;;;4962223;28;20053;-92
2023/10/08 13:53:44;;;;;;;0.10;0.10;;;;;;;;;;4961781;28;20042;-92
2023/10/08 13:56:11;;;;;;;0.30;0.30;;;;;;;;;;4961393;28;20043;-91
2023/10/08 13:58:41;;;;;;;0.20;0.20;;;;;;;;;;4960503;28;20403;-92
2023/10/08 14:01:19;;;;;;;0.35;0.35;;;;;;;;;;4976944;28;20300;-92
2023/10/08 14:03:56;;;;;;;0.20;0.20;;;;;;;;;;4961308;28;20043;-92
2023/10/08 14:06:22;;;;;;;0.28;0.28;;;;;;;;;;4961094;28;20038;-91
2023/10/08 14:08:51;;;;;;;0.30;0.30;;;;;;;;;;4961385;28;20412;-92
2023/10/08 14:11:19;;;;;;;0.10;0.10;;;;;;;;;;4977032;28;20039;-92
2023/10/08 14:13:47;;;;;;;0.10;0.10;;;;;;;;;;4961337;28;20093;-93
2023/10/08 14:16:17;;;;;;;0.13;0.13;;;;;;;;;;4977607;28;20042;-92
2023/10/08 14:18:50;;;;;;;0.10;0.10;;;;;;;;;;4961140;28;20042;-92
2023/10/08 14:21:18;;;;;;;0.08;0.08;;;;;;;;;;4977165;28;20047;-92
2023/10/08 14:23:44;;;;;;;0.30;0.30;;;;;;;;;;4961311;28;20053;-92
2023/10/08 14:26:10;;;;;;;0.10;0.10;;;;;;;;;;4960992;28;20046;-91
2023/10/08 14:28:58;;;;;;;0.20;0.20;;;;;;;;;;4962862;28;20078;-91
2023/10/08 14:31:26;;;;;;;0.13;0.13;;;;;;;;;;4976333;28;20050;-92
2023/10/08 14:34:04;;;;;;;0.20;0.20;;;;;;;;;;4964252;28;20061;-91
2023/10/08 14:44:50;;;;;;;0.10;0.10;;;;;;;;;;4980770;28;20500;-92
2023/10/08 14:47:16;;;;;;;0.20;0.20;;;;;;;;;;4963884;28;20130;-92
2023/10/08 14:49:45;;;;;;;0.10;0.10;;;;;;;;;;4964263;28;20054;-93
2023/10/08 14:52:11;;;;;;;0.10;0.10;;;;;;;;;;4963292;28;20122;-92
2023/10/08 14:54:38;;;;;;;0.10;0.10;;;;;;;;;;4963761;28;20074;-93
2023/10/08 14:57:05;;;;;;;0.20;0.20;;;;;;;;;;4980083;28;20088;-92
2023/10/08 14:59:32;;;;;;;0.17;0.17;;;;;;;;;;4963450;28;20042;-92
2023/10/08 15:01:58;;;;;;;0.10;0.10;;;;;;;;;;4963346;28;20053;-92
2023/10/08 15:04:28;;;;;;;0.10;0.10;;;;;;;;;;4979052;28;20043;-92
2023/10/08 15:06:56;;;;;;;0.10;0.10;;;;;;;;;;4964452;28;20042;-93
2023/10/08 15:09:26;;;;;;;0.10;0.10;;;;;;;;;;4964628;28;20038;-93
2023/10/08 15:11:53;;;;;;;0.20;0.20;;;;;;;;;;4962637;28;20085;-92
2023/10/08 15:14:26;;;;;;;0.20;0.20;;;;;;;;;;4947861;28;20043;-92
2023/10/08 15:16:52;;;;;;;0.20;0.20;;;;;;;;;;4963126;28;20043;-92
2023/10/08 15:19:19;;;;;;;0.10;0.10;;;;;;;;;;4963751;28;20043;-91
2023/10/08 15:21:50;;;;;;;0.22;0.22;;;;;;;;;;4963217;28;20534;-92
2023/10/08 15:24:16;;;;;;;0.20;0.20;;;;;;;;;;4963389;28;20093;-92
2023/10/08 15:26:42;;;;;;;0.10;0.10;;;;;;;;;;4963436;28;20515;-92
2023/10/08 15:29:09;;;;;;;0.20;0.20;;;;;;;;;;4963189;28;20042;-92
2023/10/08 15:31:36;;;;;;;0.20;0.20;;;;;;;;;;4963183;28;20046;-92
2023/10/08 15:34:04;;;;;;;0.10;0.10;;;;;;;;;;4963537;28;20066;-92
2023/10/08 15:36:31;;;;;;;0.20;0.20;;;;;;;;;;4963309;28;20130;-92
2023/10/08 15:38:58;;;;;;;0.08;0.08;;;;;;;;;;4962257;28;20043;-91
2023/10/08 15:41:24;;;;;;;0.20;0.20;;;;;;;;;;4961823;28;20047;-92
2023/10/08 15:43:58;;;;;;;0.00;0.00;;;;;;;;;;4963331;28;20410;-92
2023/10/08 15:46:27;;;;;;;0.17;0.17;;;;;;;;;;4963263;28;20508;-91
2023/10/08 15:48:53;;;;;;;0.30;0.30;;;;;;;;;;4962731;28;20046;-92
2023/10/08 15:51:20;;;;;;;0.30;0.30;;;;;;;;;;4962403;28;20046;-92
2023/10/08 15:53:46;;;;;;;0.20;0.20;;;;;;;;;;4963628;28;20031;-91
2023/10/08 15:56:12;;;;;;;0.17;0.17;;;;;;;;;;4962978;28;20046;-91
2023/10/08 15:58:40;;;;;;;0.10;0.10;;;;;;;;;;4962469;28;20050;-91
2023/10/08 16:01:07;;;;;;;0.20;0.20;;;;;;;;;;4962147;28;20039;-92
2023/10/08 16:03:33;;;;;;;0.10;0.10;;;;;;;;;;4977716;28;20046;-91
2023/10/08 16:05:59;;;;;;;0.10;0.10;;;;;;;;;;4962086;28;20041;-92
2023/10/08 16:08:25;;;;;;;0.17;0.17;;;;;;;;;;4962135;28;20047;-92